createdAt,value
2018-12-04T00:01:37.646Z,2.10
2018-12-04T00:04:16.967Z,2.10
2018-12-04T00:06:57.629Z,1.80
2018-12-04T00:09:36.102Z,1.50
2018-12-04T00:12:07.523Z,1.67
2018-12-04T00:14:41.695Z,1.90
2018-12-04T00:17:20.512Z,2.37
2018-12-04T00:19:58.769Z,1.80
2018-12-04T00:22:33.779Z,2.00
2018-12-04T00:25:12.081Z,2.07
2018-12-04T00:30:40.610Z,2.53
2018-12-04T00:33:20.550Z,1.93
2018-12-04T00:36:05.127Z,2.00
2018-12-04T00:38:39.549Z,1.43
2018-12-04T00:41:13.519Z,1.27
2018-12-04T00:49:41.767Z,0.97
2018-12-04T00:52:13.824Z,1.33
2018-12-04T00:54:51.645Z,1.00
2018-12-04T00:57:29.898Z,1.13
2018-12-04T01:00:08.063Z,1.17
2018-12-04T01:05:52.388Z,1.40
2018-12-04T01:08:30.240Z,1.30
2018-12-04T01:11:01.815Z,1.50
2018-12-04T01:13:42.220Z,1.60
2018-12-04T01:16:17.577Z,1.97
2018-12-04T01:18:57.534Z,1.53
2018-12-04T01:21:49.826Z,1.50
2018-12-04T01:24:21.019Z,1.30
2018-12-04T01:26:52.435Z,0.93
2018-12-04T01:29:30.173Z,1.20
2018-12-04T01:32:05.105Z,1.53
2018-12-04T01:34:45.780Z,1.43
2018-12-04T01:37:24.125Z,1.33
2018-12-04T01:40:02.189Z,1.37
2018-12-04T01:45:26.755Z,1.40
2018-12-04T01:47:56.679Z,1.50
2018-12-04T01:50:34.537Z,1.60
2018-12-04T01:53:13.712Z,1.63
2018-12-04T01:55:56.493Z,1.10
2018-12-04T01:58:35.034Z,1.40
2018-12-04T02:01:06.493Z,1.93
2018-12-04T02:03:42.381Z,1.03
2018-12-04T02:06:21.288Z,1.80
2018-12-04T02:09:02.076Z,1.60
2018-12-04T02:11:41.384Z,1.70
2018-12-04T02:14:26.309Z,1.73
2018-12-04T02:17:04.798Z,1.70
2018-12-04T02:19:45.428Z,1.70
2018-12-04T02:22:15.068Z,1.53
2018-12-04T02:24:57.876Z,1.30
2018-12-04T02:27:38.334Z,1.60
2018-12-04T02:30:30.628Z,1.40
2018-12-04T02:38:55.438Z,2.00
2018-12-04T02:41:27.021Z,1.20
2018-12-04T02:43:59.137Z,1.50
2018-12-04T02:46:37.057Z,1.23
2018-12-04T02:52:04.258Z,2.30
2018-12-04T02:54:44.934Z,2.80
2018-12-04T02:57:23.297Z,2.57
2018-12-04T03:00:01.351Z,2.97
2018-12-04T03:02:40.548Z,3.57
2018-12-04T03:05:11.947Z,3.87
2018-12-04T03:07:49.710Z,3.93
2018-12-04T03:10:27.731Z,3.73
2018-12-04T03:13:06.792Z,3.43
2018-12-04T03:15:48.610Z,3.97
2018-12-04T03:18:27.053Z,3.43
2018-12-04T03:20:58.311Z,3.53
2018-12-04T03:23:36.393Z,3.30
2018-12-04T03:26:16.126Z,4.03
2018-12-04T03:28:47.179Z,3.90
2018-12-04T03:31:25.986Z,3.77
2018-12-04T03:34:01.204Z,4.23
2018-12-04T03:36:41.932Z,3.63
2018-12-04T03:39:20.296Z,3.80
2018-12-04T03:42:05.097Z,3.20
2018-12-04T03:47:32.260Z,2.20
2018-12-04T03:50:22.093Z,2.67
2018-12-04T03:53:01.108Z,2.63
2018-12-04T03:55:39.215Z,2.40
2018-12-04T03:58:31.368Z,2.20
2018-12-04T04:01:02.806Z,2.07
2018-12-04T04:03:36.858Z,2.50
2018-12-04T04:06:17.430Z,2.40
2018-12-04T04:09:03.486Z,2.53
2018-12-04T04:14:02.038Z,3.10
2018-12-04T04:16:39.936Z,3.40
2018-12-04T04:19:18.841Z,2.60
2018-12-04T04:21:52.663Z,2.67
2018-12-04T04:24:30.459Z,2.70
2018-12-04T04:27:08.334Z,3.10
2018-12-04T04:29:47.168Z,2.77
2018-12-04T04:32:25.153Z,3.17
2018-12-04T04:35:01.421Z,3.07
2018-12-04T04:37:35.626Z,2.63
2018-12-04T04:40:09.445Z,2.83
2018-12-04T04:42:47.251Z,2.73
2018-12-04T04:48:18.456Z,2.70
2018-12-04T04:50:53.562Z,3.03
2018-12-04T04:53:31.690Z,2.80
2018-12-04T04:56:09.675Z,2.90
2018-12-04T04:58:42.209Z,3.30
2018-12-04T05:01:15.277Z,2.80
2018-12-04T05:04:06.469Z,2.77
2018-12-04T05:06:37.549Z,3.07
2018-12-04T05:09:16.206Z,2.87
2018-12-04T05:11:51.190Z,3.13
2018-12-04T05:14:29.132Z,2.50
2018-12-04T05:17:07.971Z,2.67
2018-12-04T05:19:39.211Z,3.43
2018-12-04T05:22:21.557Z,3.00
2018-12-04T05:25:07.635Z,3.17
2018-12-04T05:27:46.163Z,2.87
2018-12-04T05:30:25.360Z,2.87
2018-12-04T05:32:58.717Z,2.27
2018-12-04T05:38:37.019Z,2.80
2018-12-04T05:41:08.077Z,2.40
2018-12-04T05:43:59.763Z,3.10
2018-12-04T05:46:45.174Z,2.50
2018-12-04T05:49:24.783Z,2.43
2018-12-04T05:51:56.813Z,2.87
2018-12-04T05:54:28.062Z,2.50
2018-12-04T05:57:03.702Z,2.73
2018-12-04T05:59:42.382Z,2.77
2018-12-04T06:02:17.583Z,2.53
2018-12-04T06:07:49.764Z,3.00
2018-12-04T06:10:28.760Z,2.70
2018-12-04T06:13:06.923Z,2.70
2018-12-04T06:15:47.758Z,2.80
2018-12-04T06:18:20.081Z,3.00
2018-12-04T06:21:00.057Z,3.10
2018-12-04T06:23:53.354Z,3.83
2018-12-04T06:26:25.986Z,2.70
2018-12-04T06:28:57.145Z,3.17
2018-12-04T06:31:30.127Z,2.37
2018-12-04T06:34:09.935Z,2.57
2018-12-04T06:36:47.867Z,1.87
2018-12-04T06:39:23.083Z,2.30
2018-12-04T06:44:48.434Z,1.90
2018-12-04T06:47:22.592Z,1.73
2018-12-04T06:50:00.517Z,2.20
2018-12-04T06:52:34.789Z,1.80
2018-12-04T06:55:16.128Z,2.10
2018-12-04T06:58:01.145Z,2.40
2018-12-04T07:00:40.837Z,2.77
2018-12-04T07:03:16.795Z,2.27
2018-12-04T07:05:54.898Z,2.40
2018-12-04T07:08:33.926Z,2.57
2018-12-04T07:11:07.915Z,2.50
2018-12-04T07:13:49.589Z,2.90
2018-12-04T07:16:29.992Z,2.23
2018-12-04T07:21:54.583Z,2.40
2018-12-04T07:24:35.308Z,4.20
2018-12-04T07:27:14.486Z,3.40
2018-12-04T07:32:39.183Z,3.43
2018-12-04T07:35:11.622Z,3.20
2018-12-04T07:37:51.331Z,3.30
2018-12-04T07:40:30.355Z,2.53
2018-12-04T07:43:09.461Z,2.67
2018-12-04T07:45:48.395Z,3.10
2018-12-04T07:48:20.855Z,2.70
2018-12-04T07:50:52.802Z,2.73
2018-12-04T07:56:24.526Z,3.20
2018-12-04T07:59:03.559Z,2.83
2018-12-04T08:04:34.422Z,3.73
2018-12-04T08:07:10.292Z,3.10
2018-12-04T08:09:49.492Z,3.20
2018-12-04T08:12:28.446Z,3.13
2018-12-04T08:15:21.655Z,2.67
2018-12-04T08:18:00.723Z,2.60
2018-12-04T08:20:34.815Z,3.20
2018-12-04T08:23:07.959Z,2.70
2018-12-04T08:25:49.332Z,2.93
2018-12-04T08:28:22.140Z,2.93
2018-12-04T08:30:54.996Z,2.33
2018-12-04T08:33:30.120Z,2.97
2018-12-04T08:36:10.077Z,2.90
2018-12-04T08:38:52.713Z,2.80
2018-12-04T08:41:25.491Z,3.17
2018-12-04T08:44:04.397Z,3.37
2018-12-04T08:46:38.514Z,3.73
2018-12-04T08:49:22.866Z,3.93
2018-12-04T08:51:54.614Z,2.80
2018-12-04T08:54:34.248Z,2.80
2018-12-04T08:57:09.205Z,2.87
2018-12-04T08:59:48.433Z,3.17
2018-12-04T09:02:23.464Z,3.10
2018-12-04T09:05:03.443Z,2.73
2018-12-04T09:07:42.821Z,3.57
2018-12-04T09:10:21.751Z,3.43
2018-12-04T09:12:53.889Z,3.13
2018-12-04T09:15:32.655Z,3.00
2018-12-04T09:18:11.571Z,3.10
2018-12-04T09:20:49.648Z,2.57
2018-12-04T09:23:31.425Z,2.73
2018-12-04T09:26:09.824Z,2.50
2018-12-04T09:28:48.753Z,2.53
2018-12-04T09:31:21.232Z,2.77
2018-12-04T09:34:00.951Z,3.07
2018-12-04T09:36:40.186Z,2.70
2018-12-04T09:39:20.328Z,3.00
2018-12-04T09:41:55.465Z,3.03
2018-12-04T09:44:29.696Z,2.80
2018-12-04T09:47:07.778Z,3.07
2018-12-04T09:49:42.057Z,3.13
2018-12-04T09:52:14.221Z,3.80
2018-12-04T09:54:53.193Z,2.97
2018-12-04T09:57:33.359Z,3.40
2018-12-04T10:00:12.494Z,2.80
2018-12-04T10:02:43.794Z,2.77
2018-12-04T10:05:28.635Z,3.37
2018-12-04T10:08:07.935Z,2.70
2018-12-04T10:10:46.149Z,2.73
2018-12-04T10:13:25.171Z,2.93
2018-12-04T10:15:59.285Z,2.50
2018-12-04T10:18:38.405Z,2.30
2018-12-04T10:21:10.600Z,2.30
2018-12-04T10:23:50.553Z,2.20
2018-12-04T10:26:22.069Z,1.93
2018-12-04T10:28:55.934Z,2.63
2018-12-04T10:31:28.048Z,2.20
2018-12-04T10:34:01.010Z,1.90
2018-12-04T10:36:38.977Z,2.27
2018-12-04T10:39:17.975Z,2.10
2018-12-04T10:41:51.430Z,2.03
2018-12-04T10:44:29.324Z,2.00
2018-12-04T10:47:07.383Z,1.80
2018-12-04T10:49:39.982Z,1.90
2018-12-04T10:52:12.456Z,1.80
2018-12-04T10:54:51.073Z,2.00
2018-12-04T10:57:30.298Z,2.00
2018-12-04T11:00:11.273Z,2.10
2018-12-04T11:02:48.514Z,1.83
2018-12-04T11:05:20.017Z,1.87
2018-12-04T11:07:58.952Z,1.93
2018-12-04T11:13:23.696Z,1.90
2018-12-04T11:16:01.442Z,2.23
2018-12-04T11:21:27.633Z,2.10
2018-12-04T11:24:06.736Z,2.47
2018-12-04T11:26:45.738Z,1.93
2018-12-04T11:29:24.692Z,1.70
2018-12-04T11:32:02.802Z,2.03
2018-12-04T11:34:35.396Z,1.93
2018-12-04T11:37:13.779Z,1.53
2018-12-04T11:39:51.783Z,1.67
2018-12-04T11:42:24.090Z,1.30
2018-12-04T11:45:02.988Z,1.57
2018-12-04T11:47:43.231Z,1.70
2018-12-04T11:50:30.769Z,1.80
2018-12-04T11:53:01.505Z,2.00
2018-12-04T11:55:41.002Z,1.77
2018-12-04T11:58:10.969Z,2.00
2018-12-04T12:00:48.940Z,2.00
2018-12-04T12:03:28.885Z,2.30
2018-12-04T12:06:01.427Z,2.40
2018-12-04T12:11:31.026Z,1.70
2018-12-04T12:14:12.733Z,1.80
2018-12-04T12:16:52.053Z,1.90
2018-12-04T12:19:30.735Z,2.20
2018-12-04T12:22:02.592Z,2.43
2018-12-04T12:24:40.414Z,2.20
2018-12-04T12:27:31.396Z,2.30
2018-12-04T12:30:12.857Z,2.50
2018-12-04T12:32:48.213Z,2.10
2018-12-04T12:35:36.486Z,2.60
2018-12-04T12:38:11.439Z,1.93
2018-12-04T12:40:51.490Z,2.60
2018-12-04T12:43:35.363Z,1.93
2018-12-04T12:46:18.374Z,1.93
2018-12-04T12:48:56.688Z,2.30
2018-12-04T12:51:31.998Z,2.17
2018-12-04T12:54:08.152Z,2.10
2018-12-04T12:56:46.500Z,2.13
2018-12-04T12:59:33.489Z,2.53
2018-12-04T13:02:05.916Z,2.20
2018-12-04T13:04:45.614Z,1.93
2018-12-04T13:07:23.898Z,2.00
2018-12-04T13:10:03.126Z,2.40
2018-12-04T13:12:34.434Z,2.60
2018-12-04T13:15:14.065Z,2.87
2018-12-04T13:17:49.073Z,2.50
2018-12-04T13:20:41.332Z,2.83
2018-12-04T13:23:19.428Z,2.93
2018-12-04T13:25:51.449Z,3.43
2018-12-04T13:28:36.880Z,3.13
2018-12-04T13:31:11.411Z,3.27
2018-12-04T13:33:49.534Z,2.80
2018-12-04T13:36:37.533Z,3.20
2018-12-04T13:39:14.400Z,3.53
2018-12-04T13:41:45.018Z,2.57
2018-12-04T13:44:26.316Z,2.93
2018-12-04T13:46:58.947Z,2.67
2018-12-04T13:49:36.815Z,3.00
2018-12-04T13:52:09.156Z,2.40
2018-12-04T13:54:47.786Z,2.37
2018-12-04T14:00:23.536Z,2.33
2018-12-04T14:02:56.318Z,1.90
2018-12-04T14:05:28.123Z,2.13
2018-12-04T14:07:59.884Z,2.17
2018-12-04T14:13:33.487Z,2.37
2018-12-04T14:16:05.913Z,2.10
2018-12-04T14:18:43.733Z,2.00
2018-12-04T14:21:17.886Z,2.27
2018-12-04T14:23:59.416Z,2.53
2018-12-04T14:26:30.944Z,2.10
2018-12-04T14:29:09.742Z,2.17
2018-12-04T14:31:41.006Z,3.03
2018-12-04T14:34:19.632Z,2.20
2018-12-04T14:36:54.085Z,2.30
2018-12-04T14:39:34.853Z,2.40
2018-12-04T14:42:07.129Z,2.33
2018-12-04T14:44:39.219Z,2.60
2018-12-04T14:47:17.768Z,2.70
2018-12-04T14:49:50.171Z,2.60
2018-12-04T14:52:23.361Z,2.27
2018-12-04T14:55:01.277Z,2.57
2018-12-04T14:57:34.927Z,2.47
2018-12-04T15:00:20.358Z,2.50
2018-12-04T15:02:59.519Z,2.97
2018-12-04T15:05:37.728Z,2.37
2018-12-04T15:08:24.368Z,2.37
2018-12-04T15:11:13.914Z,2.80
2018-12-04T15:13:56.468Z,2.70
2018-12-04T15:16:35.143Z,2.43
2018-12-04T15:19:06.337Z,2.90
2018-12-04T15:21:42.142Z,2.50
2018-12-04T15:24:21.793Z,2.60
2018-12-04T15:27:00.125Z,2.83
2018-12-04T15:29:40.273Z,2.83
2018-12-04T15:32:20.594Z,2.60
2018-12-04T15:34:58.352Z,2.33
2018-12-04T15:37:30.672Z,3.53
2018-12-04T15:40:02.788Z,3.30
2018-12-04T15:42:44.980Z,3.90
2018-12-04T15:45:19.723Z,3.17
2018-12-04T15:47:51.012Z,2.97
2018-12-04T15:50:36.602Z,3.10
2018-12-04T15:53:16.141Z,3.70
2018-12-04T15:58:49.275Z,3.60
2018-12-04T16:01:21.540Z,3.23
2018-12-04T16:04:08.681Z,2.57
2018-12-04T16:06:52.073Z,3.40
2018-12-04T16:09:26.480Z,3.70
2018-12-04T16:12:00.575Z,3.47
2018-12-04T16:14:32.835Z,2.90
2018-12-04T16:17:15.149Z,4.53
2018-12-04T16:19:51.687Z,4.83
2018-12-04T16:22:24.076Z,4.00
2018-12-04T16:25:08.433Z,3.67
2018-12-04T16:27:49.533Z,3.03
2018-12-04T16:33:20.630Z,3.07
2018-12-04T16:36:00.695Z,3.63
2018-12-04T16:38:39.864Z,3.60
2018-12-04T16:41:12.323Z,4.00
2018-12-04T16:43:53.075Z,3.80
2018-12-04T16:46:35.619Z,2.73
2018-12-04T16:49:17.372Z,2.77
2018-12-04T16:51:57.053Z,3.23
2018-12-04T16:54:28.302Z,3.13
2018-12-04T16:56:59.440Z,3.17
2018-12-04T16:59:35.864Z,3.07
2018-12-04T17:02:20.757Z,3.03
2018-12-04T17:05:03.678Z,3.23
2018-12-04T17:07:37.607Z,2.90
2018-12-04T17:10:22.391Z,2.80
2018-12-04T17:13:05.832Z,2.97
2018-12-04T17:18:39.285Z,2.43
2018-12-04T17:21:11.563Z,3.60
2018-12-04T17:23:44.668Z,4.10
2018-12-04T17:26:18.481Z,3.80
2018-12-04T17:31:44.626Z,3.67
2018-12-04T17:34:27.355Z,4.10
2018-12-04T17:37:06.858Z,4.20
2018-12-04T17:39:40.874Z,5.80
2018-12-04T17:42:15.799Z,4.10
2018-12-04T17:44:57.615Z,4.53
2018-12-04T17:47:37.229Z,4.00
2018-12-04T17:53:03.531Z,2.80
2018-12-04T17:55:52.341Z,3.07
2018-12-04T17:58:26.384Z,3.43
2018-12-04T18:04:00.293Z,2.80
2018-12-04T18:06:40.330Z,3.03
2018-12-04T18:09:19.236Z,3.80
2018-12-04T18:11:52.899Z,4.13
2018-12-04T18:14:28.863Z,4.40
2018-12-04T18:19:59.907Z,5.13
2018-12-04T18:22:31.501Z,4.30
2018-12-04T18:25:09.199Z,4.20
2018-12-04T18:27:42.726Z,5.43
2018-12-04T18:33:12.744Z,4.43
2018-12-04T18:35:51.482Z,4.53
2018-12-04T18:38:29.722Z,5.50
2018-12-04T18:41:04.653Z,4.57
2018-12-04T18:43:52.859Z,4.37
2018-12-04T18:46:33.443Z,4.17
2018-12-04T18:49:13.616Z,4.33
2018-12-04T18:51:45.779Z,4.33
2018-12-04T18:54:36.582Z,4.60
2018-12-04T18:57:29.493Z,3.90
2018-12-04T19:00:07.951Z,3.40
2018-12-04T19:02:39.649Z,3.67
2018-12-04T19:05:17.407Z,3.53
2018-12-04T19:07:53.664Z,3.90
2018-12-04T19:10:45.677Z,3.97
2018-12-04T19:13:23.386Z,4.27
2018-12-04T19:16:12.726Z,3.37
2018-12-04T19:18:52.689Z,4.00
2018-12-04T19:21:24.203Z,3.63
2018-12-04T19:24:02.967Z,4.17
2018-12-04T19:26:39.358Z,4.60
2018-12-04T19:29:19.622Z,4.00
2018-12-04T19:31:57.790Z,5.00
2018-12-04T19:34:29.941Z,4.47
2018-12-04T19:37:20.975Z,4.50
2018-12-04T19:39:55.907Z,4.43
2018-12-04T19:45:27.788Z,5.33
2018-12-04T19:48:01.437Z,4.43
2018-12-04T19:50:40.650Z,4.47
2018-12-04T19:53:19.593Z,5.10
2018-12-04T19:56:04.432Z,5.90
2018-12-04T19:58:37.282Z,5.67
2018-12-04T20:01:10.165Z,4.93
2018-12-04T20:03:41.442Z,5.83
2018-12-04T20:06:13.138Z,5.87
2018-12-04T20:08:54.543Z,5.20
2018-12-04T20:11:28.925Z,4.20
2018-12-04T20:14:13.416Z,3.90
2018-12-04T20:16:51.963Z,3.90
2018-12-04T20:19:31.990Z,4.07
2018-12-04T20:22:04.571Z,4.00
2018-12-04T20:24:45.292Z,4.57
2018-12-04T20:27:24.232Z,4.60
2018-12-04T20:30:04.443Z,4.60
2018-12-04T20:32:38.688Z,4.30
2018-12-04T20:35:13.414Z,4.57
2018-12-04T20:37:51.525Z,4.67
2018-12-04T20:40:31.679Z,4.20
2018-12-04T20:43:08.024Z,5.47
2018-12-04T20:45:53.558Z,6.13
2018-12-04T20:48:32.256Z,5.97
2018-12-04T20:51:04.484Z,4.43
2018-12-04T20:53:42.455Z,4.90
2018-12-04T20:56:27.103Z,4.57
2018-12-04T20:58:56.966Z,4.93
2018-12-04T21:01:28.329Z,4.80
2018-12-04T21:04:08.024Z,4.57
2018-12-04T21:06:47.062Z,4.83
2018-12-04T21:09:26.213Z,4.40
2018-12-04T21:11:57.533Z,5.43
2018-12-04T21:14:35.506Z,6.27
2018-12-04T21:17:15.732Z,5.70
2018-12-04T21:19:49.280Z,6.10
2018-12-04T21:22:21.414Z,5.20
2018-12-04T21:25:01.446Z,4.97
2018-12-04T21:27:45.947Z,5.17
2018-12-04T21:30:36.478Z,4.93
2018-12-04T21:36:50.120Z,4.10
2018-12-04T21:39:36.056Z,3.53
2018-12-04T21:45:35.058Z,4.00
2018-12-04T21:48:15.397Z,3.23
2018-12-04T21:53:56.408Z,3.57
2018-12-04T21:56:36.617Z,6.20
2018-12-04T21:59:14.611Z,8.33
2018-12-04T22:02:01.804Z,7.10
2018-12-04T22:04:44.538Z,6.03
2018-12-04T22:07:23.802Z,6.27
2018-12-04T22:10:02.642Z,5.57
2018-12-04T22:12:34.834Z,6.10
2018-12-04T22:15:20.166Z,6.00
2018-12-04T22:18:05.221Z,5.47
2018-12-04T22:20:52.470Z,5.60
2018-12-04T22:23:31.894Z,5.53
2018-12-04T22:26:11.111Z,5.50
2018-12-04T22:29:00.359Z,5.17
2018-12-04T22:31:33.624Z,5.07
2018-12-04T22:34:09.229Z,4.97
2018-12-04T22:36:56.166Z,5.10
2018-12-04T22:39:30.813Z,4.57
2018-12-04T22:42:04.977Z,5.13
2018-12-04T22:44:40.882Z,5.40
2018-12-04T22:47:19.896Z,5.00
2018-12-04T22:52:47.682Z,5.70
2018-12-04T22:58:21.456Z,4.90
2018-12-04T23:01:09.588Z,5.30
2018-12-04T23:03:56.128Z,5.83
2018-12-04T23:06:34.567Z,5.20
2018-12-04T23:09:12.855Z,6.30
2018-12-04T23:11:45.811Z,5.47
2018-12-04T23:14:22.109Z,5.80
2018-12-04T23:17:01.222Z,5.80
2018-12-04T23:19:46.018Z,5.47
2018-12-04T23:22:22.276Z,5.20
2018-12-04T23:25:07.913Z,6.10
2018-12-04T23:27:38.777Z,5.23
2018-12-04T23:30:10.924Z,5.97
2018-12-04T23:32:44.093Z,5.67
2018-12-04T23:35:22.713Z,5.70
2018-12-04T23:37:55.057Z,5.60
2018-12-04T23:43:22.097Z,5.67
2018-12-04T23:46:06.909Z,5.80
2018-12-04T23:48:46.178Z,5.53
2018-12-04T23:51:25.329Z,5.73
2018-12-04T23:54:03.180Z,6.07
2018-12-04T23:56:41.290Z,5.87
2018-12-04T23:59:34.360Z,6.20
